Terminal Aerodrome Forecast
Issued by NWS

Home | Current Version | Previous Version | Text Only | Print | Product List | Glossary On
Versions: 1 2 3 4 5 6 7 8 9 10 11 12 13 14 15 16 17 18 19 20
744
FTUS42 TJSJ 300539
TAFISX
TAF
TISX 300539Z 3006/3106 VRB04KT P6SM VCSH FEW020 SCT030
     FM301300 11015KT P6SM SCT025 SCT050
     FM302200 VRB06KT P6SM SCT020=

USA.gov is the U.S. government's official web portal to all federal, state and local government web resources and services.